createdAt,value
2023-05-05T00:01:33.333Z,55.50
2023-05-05T00:04:00.558Z,55.70
2023-05-05T00:06:28.610Z,55.90
2023-05-05T00:08:56.162Z,56.20
2023-05-05T00:11:23.292Z,56.40
2023-05-05T00:13:51.393Z,56.60
2023-05-05T00:16:18.411Z,56.50
2023-05-05T00:18:45.617Z,56.80
2023-05-05T00:21:12.602Z,56.90
2023-05-05T00:23:39.503Z,57.00
2023-05-05T00:26:06.580Z,57.00
2023-05-05T00:28:33.570Z,57.10
2023-05-05T00:31:00.646Z,57.30
2023-05-05T00:33:27.712Z,57.40
2023-05-05T00:35:54.565Z,57.40
2023-05-05T00:38:21.645Z,57.50
2023-05-05T00:40:48.727Z,57.50
2023-05-05T00:43:15.704Z,57.60
2023-05-05T00:45:47.432Z,57.70
2023-05-05T00:48:14.547Z,57.80
2023-05-05T00:50:44.802Z,57.80
2023-05-05T00:53:13.007Z,58.00
2023-05-05T00:55:40.421Z,58.10
2023-05-05T00:58:07.933Z,58.10
2023-05-05T01:00:35.028Z,58.30
2023-05-05T01:03:02.204Z,58.30
2023-05-05T01:05:42.189Z,58.40
2023-05-05T01:08:49.570Z,58.70
2023-05-05T01:11:32.374Z,58.80
2023-05-05T01:14:16.980Z,58.90
2023-05-05T01:16:57.515Z,59.10
2023-05-05T01:19:54.394Z,59.10
2023-05-05T01:22:27.699Z,59.30
2023-05-05T01:25:09.605Z,59.20
2023-05-05T01:28:32.257Z,59.40
2023-05-05T01:31:28.466Z,59.80
2023-05-05T01:34:01.652Z,59.80
2023-05-05T01:36:39.551Z,59.70
2023-05-05T01:39:12.788Z,60.00
2023-05-05T01:41:49.221Z,60.00
2023-05-05T01:44:18.886Z,60.40
2023-05-05T01:46:48.981Z,60.10
2023-05-05T01:49:16.470Z,60.30
2023-05-05T01:51:46.102Z,60.30
2023-05-05T01:54:15.336Z,60.60
2023-05-05T01:56:43.216Z,60.80
2023-05-05T01:59:11.236Z,60.80
2023-05-05T02:01:44.808Z,60.90
2023-05-05T02:04:14.593Z,61.10
2023-05-05T02:06:42.884Z,61.10
2023-05-05T02:09:13.055Z,61.30
2023-05-05T02:11:41.040Z,61.60
2023-05-05T02:14:09.386Z,61.60
2023-05-05T02:16:41.063Z,61.70
2023-05-05T02:19:08.893Z,62.00
2023-05-05T02:21:36.380Z,62.00
2023-05-05T02:24:03.987Z,62.10
2023-05-05T02:26:35.697Z,62.30
2023-05-05T02:29:08.458Z,62.50
2023-05-05T02:31:43.111Z,62.80
2023-05-05T02:34:11.322Z,62.90
2023-05-05T02:36:41.394Z,62.80
2023-05-05T02:39:22.296Z,63.00
2023-05-05T02:41:52.324Z,63.20
2023-05-05T02:44:26.145Z,63.00
2023-05-05T02:46:54.859Z,63.20
2023-05-05T02:49:23.572Z,63.30
2023-05-05T02:51:52.762Z,63.40
2023-05-05T02:54:26.298Z,63.60
2023-05-05T02:56:54.596Z,63.70
2023-05-05T02:59:50.848Z,63.80
2023-05-05T03:02:35.461Z,63.80
2023-05-05T03:05:11.326Z,64.00
2023-05-05T03:07:59.036Z,64.10
2023-05-05T03:10:31.285Z,64.30
2023-05-05T03:13:03.202Z,64.10
2023-05-05T03:15:43.182Z,64.20
2023-05-05T03:18:12.207Z,64.50
2023-05-05T03:20:43.763Z,64.50
2023-05-05T03:23:13.456Z,64.50
2023-05-05T03:25:51.473Z,64.60
2023-05-05T03:28:28.035Z,65.00
2023-05-05T03:30:57.487Z,64.70
2023-05-05T03:33:24.767Z,64.80
2023-05-05T03:35:51.979Z,64.90
2023-05-05T03:38:19.320Z,65.00
2023-05-05T03:40:46.561Z,65.10
2023-05-05T03:43:17.595Z,65.20
2023-05-05T03:45:44.672Z,65.30
2023-05-05T03:48:11.905Z,65.50
2023-05-05T03:50:40.611Z,65.60
2023-05-05T03:53:08.428Z,65.70
2023-05-05T03:55:35.482Z,65.70
2023-05-05T03:58:02.491Z,65.80
2023-05-05T04:00:29.570Z,65.90
2023-05-05T04:02:57.061Z,66.00
2023-05-05T04:05:25.316Z,66.20
2023-05-05T04:07:52.511Z,66.20
2023-05-05T04:10:19.545Z,66.20
2023-05-05T04:12:46.668Z,66.20
2023-05-05T04:15:13.655Z,66.30
2023-05-05T04:17:41.339Z,66.30
2023-05-05T04:20:09.558Z,66.40
2023-05-05T04:22:36.975Z,66.40
2023-05-05T04:25:05.051Z,66.50
2023-05-05T04:27:32.237Z,66.50
2023-05-05T04:30:00.293Z,66.50
2023-05-05T04:32:27.677Z,66.40
2023-05-05T04:34:54.989Z,66.50
2023-05-05T04:37:22.766Z,66.40
2023-05-05T04:39:49.909Z,66.60
2023-05-05T04:42:17.106Z,66.40
2023-05-05T04:44:44.198Z,66.20
2023-05-05T04:47:13.933Z,66.30
2023-05-05T04:49:41.958Z,66.10
2023-05-05T04:52:08.965Z,66.00
2023-05-05T04:54:37.230Z,66.00
2023-05-05T04:57:04.613Z,65.80
2023-05-05T04:59:31.627Z,65.60
2023-05-05T05:01:58.539Z,65.40
2023-05-05T05:04:27.156Z,65.10
2023-05-05T05:06:54.896Z,65.00
2023-05-05T05:09:22.955Z,64.70
2023-05-05T05:11:50.055Z,64.60
2023-05-05T05:14:17.098Z,64.40
2023-05-05T05:16:44.443Z,64.20
2023-05-05T05:19:11.473Z,63.90
2023-05-05T05:21:38.474Z,63.50
2023-05-05T05:24:05.689Z,63.10
2023-05-05T05:26:32.760Z,63.00
2023-05-05T05:29:00.048Z,62.80
2023-05-05T05:31:27.295Z,62.40
2023-05-05T05:33:56.144Z,62.20
2023-05-05T05:36:23.592Z,62.00
2023-05-05T05:38:50.620Z,61.80
2023-05-05T05:41:18.034Z,61.50
2023-05-05T05:43:44.910Z,61.00
2023-05-05T05:46:12.479Z,60.60
2023-05-05T05:48:40.714Z,60.10
2023-05-05T05:51:08.341Z,59.80
2023-05-05T05:53:35.661Z,59.30
2023-05-05T05:56:02.703Z,58.90
2023-05-05T05:58:29.953Z,58.70
2023-05-05T06:00:59.103Z,58.20
2023-05-05T06:03:26.763Z,58.00
2023-05-05T06:05:54.039Z,57.90
2023-05-05T06:08:22.580Z,57.60
2023-05-05T06:10:53.127Z,57.60
2023-05-05T06:13:21.442Z,57.60
2023-05-05T06:15:50.877Z,57.20
2023-05-05T06:18:18.559Z,57.20
2023-05-05T06:20:49.155Z,56.60
2023-05-05T06:23:16.582Z,56.10
2023-05-05T06:25:48.693Z,55.80
2023-05-05T06:28:16.204Z,55.40
2023-05-05T06:30:43.253Z,55.10
2023-05-05T06:33:10.382Z,54.60
2023-05-05T06:35:37.322Z,54.40
2023-05-05T06:38:04.309Z,54.00
2023-05-05T06:40:31.811Z,53.70
2023-05-05T06:42:58.676Z,53.30
2023-05-05T06:45:32.134Z,53.20
2023-05-05T06:47:59.025Z,53.10
2023-05-05T06:50:25.961Z,52.80
2023-05-05T06:52:53.232Z,52.60
2023-05-05T06:55:20.526Z,52.30
2023-05-05T06:57:47.761Z,52.00
2023-05-05T07:00:16.780Z,51.50
2023-05-05T07:02:44.150Z,51.30
2023-05-05T07:05:11.109Z,51.10
2023-05-05T07:07:38.892Z,50.60
2023-05-05T07:10:07.598Z,50.50
2023-05-05T07:12:34.754Z,50.00
2023-05-05T07:15:07.019Z,49.80
2023-05-05T07:17:42.834Z,49.60
2023-05-05T07:20:10.943Z,49.30
2023-05-05T07:22:38.124Z,48.70
2023-05-05T07:25:06.195Z,48.50
2023-05-05T07:27:34.017Z,48.10
2023-05-05T07:30:01.285Z,47.80
2023-05-05T07:32:28.332Z,47.90
2023-05-05T07:34:55.345Z,47.60
2023-05-05T07:37:22.422Z,47.40
2023-05-05T07:39:49.449Z,47.40
2023-05-05T07:42:16.663Z,46.80
2023-05-05T07:44:44.644Z,46.50
2023-05-05T07:47:11.818Z,46.20
2023-05-05T07:49:38.785Z,46.00
2023-05-05T07:52:05.645Z,45.80
2023-05-05T07:54:32.836Z,45.60
2023-05-05T07:56:59.890Z,45.40
2023-05-05T07:59:26.842Z,45.00
2023-05-05T08:01:55.043Z,45.00
2023-05-05T08:04:22.238Z,44.10
2023-05-05T08:06:49.217Z,44.00
2023-05-05T08:09:16.376Z,43.70
2023-05-05T08:11:43.404Z,43.80
2023-05-05T08:14:10.516Z,43.30
2023-05-05T08:16:37.450Z,43.00
2023-05-05T08:19:07.933Z,42.20
2023-05-05T08:21:42.203Z,41.20
2023-05-05T08:24:09.146Z,40.00
2023-05-05T08:26:36.319Z,39.40
2023-05-05T08:29:03.263Z,39.40
2023-05-05T08:31:34.566Z,39.20
2023-05-05T08:34:02.487Z,38.40
2023-05-05T08:36:29.680Z,37.60
2023-05-05T08:38:57.247Z,36.80
2023-05-05T08:41:25.264Z,36.30
2023-05-05T08:43:52.838Z,35.50
2023-05-05T08:46:20.811Z,34.40
2023-05-05T08:48:49.243Z,33.90
2023-05-05T08:51:20.258Z,33.10
2023-05-05T08:54:04.029Z,32.80
2023-05-05T08:56:39.276Z,32.30
2023-05-05T08:59:06.895Z,31.80
2023-05-05T09:01:36.470Z,31.50
2023-05-05T09:04:08.327Z,31.30
2023-05-05T09:06:37.161Z,30.60
2023-05-05T09:09:04.257Z,29.80
2023-05-05T09:11:34.671Z,29.80
2023-05-05T09:14:01.933Z,29.50
2023-05-05T09:16:28.813Z,29.40
2023-05-05T09:19:05.137Z,29.20
2023-05-05T09:21:32.431Z,28.50
2023-05-05T09:24:09.557Z,28.90
2023-05-05T09:26:39.527Z,27.90
2023-05-05T09:29:07.255Z,27.70
2023-05-05T09:31:36.514Z,27.40
2023-05-05T09:34:16.717Z,27.20
2023-05-05T09:36:49.627Z,26.60
2023-05-05T09:39:20.904Z,26.50
2023-05-05T09:41:48.939Z,26.50
2023-05-05T09:44:17.497Z,26.20
2023-05-05T09:46:52.845Z,26.10
2023-05-05T09:49:27.258Z,25.90
2023-05-05T09:51:55.757Z,26.10
2023-05-05T09:54:24.644Z,25.80
2023-05-05T09:56:52.608Z,26.00
2023-05-05T09:59:20.975Z,25.90
2023-05-05T10:01:50.690Z,25.20
2023-05-05T10:04:29.996Z,24.20
2023-05-05T10:06:58.483Z,23.40
2023-05-05T10:09:27.318Z,23.50
2023-05-05T10:11:58.636Z,23.60
2023-05-05T10:14:27.452Z,23.40
2023-05-05T10:16:55.528Z,23.20
2023-05-05T10:19:24.531Z,23.10
2023-05-05T10:21:54.195Z,23.00
2023-05-05T10:24:43.453Z,23.30
2023-05-05T10:27:22.442Z,22.90
2023-05-05T10:29:57.999Z,22.80
2023-05-05T10:33:03.411Z,23.00
2023-05-05T10:35:34.253Z,22.60
2023-05-05T10:38:02.325Z,22.60
2023-05-05T10:40:30.047Z,22.50
2023-05-05T10:42:58.603Z,22.70
2023-05-05T10:45:25.760Z,22.60
2023-05-05T10:47:57.118Z,23.50
2023-05-05T10:50:36.770Z,23.00
2023-05-05T10:53:24.203Z,22.40
2023-05-05T10:56:04.436Z,22.20
2023-05-05T10:58:51.649Z,21.90
2023-05-05T11:01:34.107Z,21.80
2023-05-05T11:04:24.792Z,21.40
2023-05-05T11:07:14.680Z,21.10
2023-05-05T11:09:57.005Z,20.50
2023-05-05T11:12:26.769Z,20.70
2023-05-05T11:15:28.232Z,20.70
2023-05-05T11:17:56.741Z,20.20
2023-05-05T11:20:41.695Z,20.30
2023-05-05T11:23:08.835Z,19.50
2023-05-05T11:25:41.998Z,19.80
2023-05-05T11:28:19.031Z,19.70
2023-05-05T11:31:04.150Z,19.50
2023-05-05T11:33:39.774Z,19.00
2023-05-05T11:36:11.838Z,18.70
2023-05-05T11:38:38.691Z,18.50
2023-05-05T11:41:33.488Z,18.30
2023-05-05T11:44:21.202Z,17.90
2023-05-05T11:46:51.039Z,17.90
2023-05-05T11:49:37.629Z,18.10
2023-05-05T11:52:10.734Z,17.70
2023-05-05T11:54:41.644Z,18.20
2023-05-05T11:57:09.101Z,18.20
2023-05-05T11:59:49.819Z,18.40
2023-05-05T12:02:18.709Z,18.40
2023-05-05T12:04:47.059Z,18.50
2023-05-05T12:07:19.990Z,18.90
2023-05-05T12:09:49.291Z,18.90
2023-05-05T12:12:17.228Z,19.10
2023-05-05T12:14:52.803Z,19.20
2023-05-05T12:17:20.883Z,19.20
2023-05-05T12:19:54.250Z,19.60
2023-05-05T12:22:27.624Z,19.20
2023-05-05T12:25:01.595Z,19.70
2023-05-05T12:27:29.326Z,19.60
2023-05-05T12:29:57.903Z,19.70
2023-05-05T12:32:28.355Z,19.70
2023-05-05T12:34:57.514Z,19.40
2023-05-05T12:37:26.737Z,19.40
2023-05-05T12:39:55.096Z,19.60
2023-05-05T12:42:22.687Z,19.30
2023-05-05T12:44:49.890Z,19.10
2023-05-05T12:47:33.316Z,19.40
2023-05-05T12:50:02.896Z,18.90
2023-05-05T12:52:45.363Z,19.00
2023-05-05T12:55:13.225Z,19.00
2023-05-05T12:58:02.275Z,19.20
2023-05-05T13:00:29.334Z,18.80
2023-05-05T13:02:56.951Z,18.90
2023-05-05T13:05:37.677Z,18.70
2023-05-05T13:08:05.035Z,18.50
2023-05-05T13:10:32.034Z,18.50
2023-05-05T13:12:59.572Z,18.50
2023-05-05T13:15:27.536Z,18.30
2023-05-05T13:18:01.544Z,18.40
2023-05-05T13:20:28.837Z,18.30
2023-05-05T13:22:55.926Z,18.30
2023-05-05T13:25:22.786Z,18.30
2023-05-05T13:27:49.740Z,18.20
2023-05-05T13:30:16.562Z,18.00
2023-05-05T13:32:43.708Z,18.10
2023-05-05T13:35:11.709Z,18.10
2023-05-05T13:37:42.408Z,18.20
2023-05-05T13:40:10.581Z,18.20
2023-05-05T13:42:37.488Z,18.20
2023-05-05T13:45:05.512Z,18.10
2023-05-05T13:47:32.729Z,18.00
2023-05-05T13:49:59.804Z,18.00
2023-05-05T13:52:27.321Z,18.00
2023-05-05T13:54:54.480Z,18.10
2023-05-05T13:57:21.467Z,18.20
2023-05-05T13:59:48.568Z,18.20
2023-05-05T14:02:16.129Z,18.30
2023-05-05T14:04:43.187Z,18.20
2023-05-05T14:07:10.307Z,18.20
2023-05-05T14:09:37.224Z,18.20
2023-05-05T14:12:04.970Z,18.30
2023-05-05T14:14:31.872Z,18.30
2023-05-05T14:16:58.899Z,18.20
2023-05-05T14:19:25.992Z,18.30
2023-05-05T14:21:53.034Z,18.50
2023-05-05T14:24:20.154Z,18.50
2023-05-05T14:26:47.147Z,18.30
2023-05-05T14:29:14.275Z,18.30
2023-05-05T14:31:41.421Z,18.30
2023-05-05T14:34:08.459Z,18.40
2023-05-05T14:36:35.432Z,18.60
2023-05-05T14:39:02.284Z,18.70
2023-05-05T14:41:29.344Z,18.80
2023-05-05T14:43:57.098Z,18.80
2023-05-05T14:46:24.040Z,19.00
2023-05-05T14:48:51.102Z,19.10
2023-05-05T14:51:18.274Z,19.40
2023-05-05T14:53:45.297Z,19.40
2023-05-05T14:56:12.205Z,19.50
2023-05-05T14:58:39.057Z,19.60
2023-05-05T15:01:06.142Z,19.80
2023-05-05T15:03:33.287Z,19.90
2023-05-05T15:06:00.479Z,19.80
2023-05-05T15:08:27.561Z,20.00
2023-05-05T15:10:54.587Z,20.00
2023-05-05T15:13:21.710Z,20.20
2023-05-05T15:15:49.001Z,20.50
2023-05-05T15:18:16.052Z,20.60
2023-05-05T15:20:43.132Z,20.80
2023-05-05T15:23:10.160Z,21.00
2023-05-05T15:25:37.027Z,21.20
2023-05-05T15:28:04.056Z,21.50
2023-05-05T15:30:31.160Z,21.70
2023-05-05T15:32:58.273Z,22.00
2023-05-05T15:35:25.510Z,22.20
2023-05-05T15:37:54.381Z,22.40
2023-05-05T15:40:21.557Z,22.60
2023-05-05T15:42:49.900Z,22.70
2023-05-05T15:45:17.576Z,22.70
2023-05-05T15:47:44.787Z,22.90
2023-05-05T15:50:12.099Z,23.10
2023-05-05T15:52:39.051Z,23.20
2023-05-05T15:55:07.196Z,23.40
2023-05-05T15:57:34.656Z,23.40
2023-05-05T16:00:02.055Z,23.50
2023-05-05T16:02:34.707Z,23.40
2023-05-05T16:05:02.268Z,23.50
2023-05-05T16:07:29.348Z,23.60
2023-05-05T16:09:57.212Z,23.60
2023-05-05T16:12:24.073Z,23.90
2023-05-05T16:14:51.084Z,24.10
2023-05-05T16:17:18.499Z,24.30
2023-05-05T16:19:46.926Z,24.60
2023-05-05T16:22:14.567Z,24.90
2023-05-05T16:24:44.196Z,25.40
2023-05-05T16:27:12.759Z,25.50
2023-05-05T16:29:40.045Z,25.80
2023-05-05T16:32:06.989Z,26.00
2023-05-05T16:34:34.102Z,26.30
2023-05-05T16:37:01.188Z,26.60
2023-05-05T16:39:28.376Z,26.80
2023-05-05T16:41:55.579Z,27.00
2023-05-05T16:44:22.692Z,27.20
2023-05-05T16:46:49.827Z,27.50
2023-05-05T16:49:17.181Z,27.80
2023-05-05T16:51:44.472Z,28.20
2023-05-05T16:54:11.408Z,28.50
2023-05-05T16:56:38.614Z,28.80
2023-05-05T16:59:06.234Z,29.20
2023-05-05T17:01:34.744Z,29.30
2023-05-05T17:04:02.451Z,29.50
2023-05-05T17:06:33.158Z,29.60
2023-05-05T17:09:00.566Z,30.00
2023-05-05T17:11:27.863Z,30.00
2023-05-05T17:13:54.941Z,30.20
2023-05-05T17:16:22.149Z,30.50
2023-05-05T17:18:49.318Z,30.70
2023-05-05T17:21:16.288Z,31.00
2023-05-05T17:23:43.296Z,31.40
2023-05-05T17:26:10.268Z,31.60
2023-05-05T17:28:37.412Z,31.70
2023-05-05T17:31:04.335Z,32.00
2023-05-05T17:33:31.441Z,32.20
2023-05-05T17:35:58.412Z,32.70
2023-05-05T17:38:25.458Z,32.90
2023-05-05T17:40:52.459Z,33.30
2023-05-05T17:43:19.581Z,33.50
2023-05-05T17:45:46.846Z,34.00
2023-05-05T17:48:14.019Z,34.40
2023-05-05T17:50:43.128Z,34.70
2023-05-05T17:53:11.126Z,35.00
2023-05-05T17:55:38.504Z,35.20
2023-05-05T17:58:05.569Z,35.50
2023-05-05T18:00:32.496Z,35.80
2023-05-05T18:03:01.222Z,36.20
2023-05-05T18:05:28.471Z,36.50
2023-05-05T18:07:55.676Z,36.80
2023-05-05T18:10:23.201Z,36.80
2023-05-05T18:12:50.306Z,37.10
2023-05-05T18:15:17.292Z,37.20
2023-05-05T18:17:44.452Z,37.90
2023-05-05T18:20:11.796Z,38.10
2023-05-05T18:22:38.896Z,38.10
2023-05-05T18:25:08.026Z,38.40
2023-05-05T18:27:36.190Z,38.50
2023-05-05T18:30:04.757Z,38.60
2023-05-05T18:32:32.261Z,38.90
2023-05-05T18:34:59.653Z,39.00
2023-05-05T18:37:27.892Z,39.40
2023-05-05T18:39:55.015Z,39.40
2023-05-05T18:42:22.398Z,39.60
2023-05-05T18:44:49.296Z,39.80
2023-05-05T18:47:16.386Z,39.90
2023-05-05T18:49:45.307Z,40.00
2023-05-05T18:52:12.285Z,40.20
2023-05-05T18:54:39.143Z,40.40
2023-05-05T18:57:06.065Z,40.50
2023-05-05T18:59:33.166Z,40.80
2023-05-05T19:02:00.447Z,40.80
2023-05-05T19:04:31.221Z,41.00
2023-05-05T19:07:00.180Z,41.10
2023-05-05T19:09:28.034Z,41.10
2023-05-05T19:11:54.914Z,41.10
2023-05-05T19:14:22.833Z,41.40
2023-05-05T19:16:50.172Z,41.50
2023-05-05T19:19:17.110Z,41.50
2023-05-05T19:21:44.220Z,41.50
2023-05-05T19:24:11.623Z,41.50
2023-05-05T19:26:38.743Z,41.60
2023-05-05T19:29:05.828Z,41.70
2023-05-05T19:31:32.761Z,41.80
2023-05-05T19:34:02.461Z,41.80
2023-05-05T19:36:31.903Z,41.80
2023-05-05T19:39:03.910Z,42.00
2023-05-05T19:41:31.252Z,42.20
2023-05-05T19:43:58.427Z,42.00
2023-05-05T19:46:28.161Z,42.20
2023-05-05T19:48:55.138Z,42.40
2023-05-05T19:51:22.310Z,42.40
2023-05-05T19:53:50.362Z,42.50
2023-05-05T19:56:17.464Z,42.60
2023-05-05T19:59:01.727Z,42.60
2023-05-05T20:01:29.424Z,42.90
2023-05-05T20:03:57.120Z,42.70
2023-05-05T20:06:24.395Z,42.80
2023-05-05T20:08:52.324Z,43.10
2023-05-05T20:11:21.258Z,43.10
2023-05-05T20:13:50.563Z,43.10
2023-05-05T20:16:18.468Z,43.30
2023-05-05T20:18:45.417Z,43.30
2023-05-05T20:21:12.508Z,43.30
2023-05-05T20:23:39.521Z,43.40
2023-05-05T20:26:06.729Z,43.40
2023-05-05T20:28:33.916Z,43.30
2023-05-05T20:31:01.286Z,43.60
2023-05-05T20:33:29.135Z,43.60
2023-05-05T20:35:56.067Z,43.80
2023-05-05T20:38:23.062Z,43.70
2023-05-05T20:40:50.848Z,43.80
2023-05-05T20:43:18.203Z,43.80
2023-05-05T20:45:45.311Z,44.00
2023-05-05T20:48:12.212Z,43.90
2023-05-05T20:50:42.622Z,43.90
2023-05-05T20:53:11.246Z,44.10
2023-05-05T20:55:38.629Z,43.90
2023-05-05T20:58:07.384Z,44.10
2023-05-05T21:00:34.673Z,44.20
2023-05-05T21:03:02.911Z,44.30
2023-05-05T21:05:31.455Z,44.40
2023-05-05T21:08:00.887Z,44.50
2023-05-05T21:10:29.158Z,44.60
2023-05-05T21:12:56.274Z,44.50
2023-05-05T21:15:23.390Z,44.60
2023-05-05T21:17:50.963Z,44.60
2023-05-05T21:20:18.651Z,44.70
2023-05-05T21:22:46.065Z,44.80
2023-05-05T21:25:19.571Z,44.80
2023-05-05T21:27:48.484Z,44.80
2023-05-05T21:30:16.965Z,45.00
2023-05-05T21:32:44.659Z,45.00
2023-05-05T21:35:11.966Z,45.10
2023-05-05T21:37:39.458Z,44.90
2023-05-05T21:40:13.889Z,45.00
2023-05-05T21:42:42.213Z,44.90
2023-05-05T21:45:11.657Z,44.90
2023-05-05T21:47:38.874Z,45.00
2023-05-05T21:50:06.777Z,45.20
2023-05-05T21:52:33.873Z,45.30
2023-05-05T21:55:00.852Z,45.40
2023-05-05T21:57:27.816Z,45.50
2023-05-05T21:59:54.977Z,45.70
2023-05-05T22:02:22.404Z,45.70
2023-05-05T22:04:51.601Z,45.60
2023-05-05T22:07:18.728Z,45.60
2023-05-05T22:09:46.155Z,45.70
2023-05-05T22:12:13.277Z,45.90
2023-05-05T22:14:40.523Z,46.20
2023-05-05T22:17:07.352Z,46.20
2023-05-05T22:19:34.657Z,46.00
2023-05-05T22:22:02.647Z,45.90
2023-05-05T22:24:30.318Z,45.80
2023-05-05T22:26:57.422Z,45.80
2023-05-05T22:29:25.197Z,45.70
2023-05-05T22:31:52.538Z,45.80
2023-05-05T22:34:21.562Z,45.90
2023-05-05T22:36:49.273Z,45.90
2023-05-05T22:39:17.153Z,46.00
2023-05-05T22:41:44.907Z,46.10
2023-05-05T22:44:12.256Z,46.30
2023-05-05T22:46:39.264Z,46.60
2023-05-05T22:49:06.274Z,46.70
2023-05-05T22:51:33.990Z,46.80
2023-05-05T22:54:01.000Z,47.00
2023-05-05T22:56:28.031Z,47.00
2023-05-05T22:58:55.687Z,47.00
2023-05-05T23:01:23.093Z,47.40
2023-05-05T23:03:50.068Z,47.70
2023-05-05T23:06:16.999Z,48.00
2023-05-05T23:08:44.593Z,48.40
2023-05-05T23:11:11.463Z,48.90
2023-05-05T23:13:38.649Z,48.90
2023-05-05T23:16:06.304Z,49.50
2023-05-05T23:18:33.334Z,50.10
2023-05-05T23:21:00.429Z,50.60
2023-05-05T23:23:27.593Z,51.50
2023-05-05T23:25:54.647Z,52.10
2023-05-05T23:28:21.673Z,52.90
2023-05-05T23:30:48.719Z,53.30
2023-05-05T23:33:16.075Z,53.50
2023-05-05T23:35:45.423Z,53.80
2023-05-05T23:38:12.508Z,53.80
2023-05-05T23:40:39.404Z,54.00
2023-05-05T23:43:06.233Z,54.60
2023-05-05T23:45:33.313Z,55.40
2023-05-05T23:48:00.342Z,55.90
2023-05-05T23:50:27.771Z,56.90
2023-05-05T23:52:54.740Z,57.70
2023-05-05T23:55:21.782Z,58.30
2023-05-05T23:57:48.641Z,59.10
